Historyczne dane pomiarowe

Dodano dane terminowe – wersja testowa.

Dane z okresu 1951-2019

Wersja bazy: 1.34 [2019-03-16, lista zmian], aktualizacja planowana na 2019-04-15

Dane meteo z obszaru Polski uzyskane na podstawie danych udostępnionych przez Instytut Meteorologii i Gospodarki Wodnej – Państwowy Instytut Badawczy.

 

Wybierz Datę:    

       

TemperaturaWilgotnośćWiatrCiśnienieOpadyŚniegCzas trwania zjawisk
 Stacja t tx tn tng RH VA  wxwx mslp ppp RRR   cm mm wxwxwxwxwxwxwx
1994-08-14 14.6 17.6 13.4 10.4 74.8- 6.0 7.7---- 0.1------------
1994-08-13 18.5 23.7 15.6 12.1 78.8- 7.7 3.7---- 3.4------------
1994-08-12 19.6 26.1 15.5 14.2 67.8- 6.0 1.7---- 0.0------------
1994-08-11 19.0 25.1 13.6 9.8 71.3- 4.7 2.3---- 0.0------------
1994-08-10 19.4 26.0 14.7 10.7 74.8- 6.0 1.3---- 0.0------------
1994-08-09 16.9 21.3 14.3 10.2 95.8- 7.3 1.3---- 9.0------------
1994-08-08 19.1 24.0 17.3 12.9 80.5- 5.3 1.3---- 0.4------------
1994-08-07 23.5 29.6 17.1 13.7 68.8- 3.7 3.0---- 0.4------------
1994-08-06 26.4 34.7 18.6 12.2 53.8- 3.3 2.0---- 0.0------------
1994-08-05 25.6 32.6 17.1 12.9 66.0- 2.7 1.7---- 0.0------------
1994-08-04 22.7 30.4 16.0 12.2 76.3- 6.3 2.3---- 0.0------------
1994-08-03 23.8 29.8 20.2 16.7 72.8- 5.3 3.3---- 0.0------------
1994-08-02 28.1 34.7 23.6 18.3 49.3- 5.0 0.7---- 0.0------------
1994-08-01 27.0 36.1 18.0 14.1 52.8- 5.7 2.0---- 0.0------------
1994-07-31 28.4 36.1 17.6 13.2 54.0- 3.7 1.3---- 0.0------------
1994-07-30 27.2 35.9 15.7 10.9 48.8- 0.0 0.7---- 0.0------------
1994-07-29 26.0 35.0 14.9 9.7 53.0- 0.0 1.3---- 0.0------------
1994-07-28 24.9 33.7 16.6 10.8 55.0- 0.0 0.7---- 0.0------------
1994-07-27 24.2 33.3 15.6 8.8 56.5- 0.3 0.7---- 0.0------------
1994-07-26 23.8 32.2 14.6 8.9 55.5- 0.0 1.7---- 0.0------------
1994-07-25 24.5 32.3 12.7 8.3 53.5- 1.3 1.3---- 0.0------------
1994-07-24 23.3 30.9 12.6 7.7 55.0- 0.7 1.7---- 0.0------------
1994-07-23 21.0 29.3 12.0 7.6 67.0- 0.3 1.3---- 0.0------------
1994-07-22 19.8 27.1 10.1 4.8 65.8- 0.0 2.0---- 0.0------------
1994-07-21 20.4 28.4 9.4 5.0 55.3- 0.0 1.3---- 0.0------------
1994-07-20 18.0 24.9 8.1 5.9 64.0- 0.0 2.7---- 0.0------------
1994-07-19 18.3 23.3 9.6 6.8 57.8- 3.3 5.7---- 0.0------------
1994-07-18 20.5 25.4 15.1 13.7 70.3- 4.7 1.7---- 0.0------------
1994-07-17 21.6 27.1 14.8 12.2 70.5- 4.3 1.7---- 0.0------------
1994-07-16 23.2 31.0 15.1 10.7 66.0- 4.3 1.7---- 1.0------------
1994-07-15 23.3 29.9 15.6 12.2 65.3- 1.0 1.0---- 0.0------------
1994-07-14 24.6 30.9 17.8 13.2 64.5- 4.0 1.0---- 0.0------------
1994-07-13 23.6 30.1 16.7 11.1 63.8- 2.7 1.7---- 0.0------------
1994-07-12 23.0 29.5 13.6 10.2 66.8- 0.3 1.0---- 0.0------------
1994-07-11 21.5 27.9 13.1 9.6 69.3- 0.3 1.7---- 0.0------------
1994-07-10 18.0 25.5 12.7 9.3 80.0- 3.7 2.7---- 5.5------------
1994-07-09 14.1 16.7 12.8 11.1 92.3- 8.0 4.0---- 2.3------------
1994-07-08 15.5 25.5 12.6 7.8 85.8- 8.0 5.0---- 15.8------------
1994-07-07 19.6 26.0 8.7 4.4 66.0- 2.7 2.0---- 2.4------------
1994-07-06 18.5 25.6 9.8 5.9 66.0- 2.0 1.7---- 0.0------------
1994-07-05 18.2 24.1 9.4 4.4 60.0- 1.7 2.0---- 0.0------------
1994-07-04 18.9 25.1 9.6 4.6 57.5- 0.0 1.7---- 0.0------------
1994-07-03 18.0 25.0 7.6 2.2 55.8- 0.0 1.3---- 0.0------------
1994-07-02 16.9 23.8 7.3 2.0 63.5- 0.0 1.3---- 0.0------------
1994-07-01 17.0 23.5 9.6 4.5 72.3- 0.0 2.0---- 0.0------------
1994-06-30 21.2 29.6 18.9 15.7 76.0- 4.7 4.0---- 0.0------------
1994-06-29 24.7 29.6 15.0 10.5 65.5- 0.0 3.3---- 0.2------------
1994-06-28 21.9 27.7 13.1 9.8 66.3- 1.3 1.0---- 0.0------------
1994-06-27 22.5 28.3 16.4 10.2 73.8- 0.0 2.3---- 0.0------------
1994-06-26 21.6 28.6 9.4 4.7 59.8- 0.3 3.3---- 0.0------------
1994-06-25 15.4 22.4 3.7 1.1 65.8- 0.0 2.7---- 0.0------------
1994-06-24 13.6 18.6 8.4 6.0 59.0- 2.7 7.7---- 0.0------------
1994-06-23 15.5 21.7 11.0 9.7 58.3- 2.0 12.0---- 0.0------------
1994-06-22 17.7 23.6 11.5 6.8 68.8- 5.0 6.3---- 0.0------------
1994-06-21 14.7 20.4 5.7 3.3 69.0- 3.3 3.7---- 0.0------------
1994-06-20 15.5 18.0 12.5 10.1 66.8- 5.3 6.0---- 0.0------------
1994-06-19 14.3 17.3 11.0 9.9 82.3- 8.0 3.0---- 3.3------------
1994-06-18 12.2 17.7 4.4 1.2 68.3- 5.3 2.7---- 4.4------------
1994-06-17 11.0 14.6 6.6 5.1 71.5- 6.7 6.0---- 0.0------------
1994-06-16 11.7 15.0 7.2 3.0 73.3- 6.7 4.7---- 1.5------------
1006.4 ms

 

Źródłem pochodzenia danych jest Instytut Meteorologii i Gospodarki Wodnej – Państwowy Instytut Badawczy. Dane Instytutu Meteorologii i Gospodarki Wodnej – Państwowego Instytutu Badawczego zostały przetworzone.

Dane źródłowe można odnaleźć na stronie https://dane.imgw.pl